sensor_id;sensor_type;location;lat;lon;timestamp;P1;durP1;ratioP1;P2;durP2;ratioP2
21697;SDS011;11010;49.548;11.926;2023-07-16T00:00:27;9.50;;;2.53;;
21697;SDS011;11010;49.548;11.926;2023-07-16T00:02:56;7.28;;;2.60;;
21697;SDS011;11010;49.548;11.926;2023-07-16T00:05:23;8.90;;;2.70;;
21697;SDS011;11010;49.548;11.926;2023-07-16T00:07:50;7.93;;;2.60;;
21697;SDS011;11010;49.548;11.926;2023-07-16T00:10:17;8.20;;;2.53;;
21697;SDS011;11010;49.548;11.926;2023-07-16T00:12:45;9.25;;;2.60;;
21697;SDS011;11010;49.548;11.926;2023-07-16T00:15:12;8.77;;;2.65;;
21697;SDS011;11010;49.548;11.926;2023-07-16T00:17:39;9.93;;;2.50;;
21697;SDS011;11010;49.548;11.926;2023-07-16T00:20:07;8.75;;;2.50;;
21697;SDS011;11010;49.548;11.926;2023-07-16T00:22:35;8.52;;;2.60;;
21697;SDS011;11010;49.548;11.926;2023-07-16T00:25:06;8.50;;;2.53;;
21697;SDS011;11010;49.548;11.926;2023-07-16T00:27:34;7.57;;;2.60;;
21697;SDS011;11010;49.548;11.926;2023-07-16T00:30:01;8.48;;;2.53;;
21697;SDS011;11010;49.548;11.926;2023-07-16T00:32:29;8.65;;;2.72;;
21697;SDS011;11010;49.548;11.926;2023-07-16T00:34:57;9.63;;;3.05;;
21697;SDS011;11010;49.548;11.926;2023-07-16T00:37:24;9.10;;;2.60;;
21697;SDS011;11010;49.548;11.926;2023-07-16T00:39:51;8.52;;;2.70;;
21697;SDS011;11010;49.548;11.926;2023-07-16T00:42:18;7.95;;;2.80;;
21697;SDS011;11010;49.548;11.926;2023-07-16T00:44:46;8.65;;;2.70;;
21697;SDS011;11010;49.548;11.926;2023-07-16T00:47:13;9.05;;;2.63;;
21697;SDS011;11010;49.548;11.926;2023-07-16T00:49:40;7.57;;;2.67;;
21697;SDS011;11010;49.548;11.926;2023-07-16T00:52:10;7.65;;;2.47;;
21697;SDS011;11010;49.548;11.926;2023-07-16T00:54:42;9.65;;;2.90;;
21697;SDS011;11010;49.548;11.926;2023-07-16T00:57:09;7.25;;;2.25;;
21697;SDS011;11010;49.548;11.926;2023-07-16T00:59:36;8.73;;;2.67;;
21697;SDS011;11010;49.548;11.926;2023-07-16T01:02:03;7.75;;;2.72;;
21697;SDS011;11010;49.548;11.926;2023-07-16T01:04:31;7.20;;;2.40;;
21697;SDS011;11010;49.548;11.926;2023-07-16T01:07:00;8.82;;;2.67;;
21697;SDS011;11010;49.548;11.926;2023-07-16T01:09:31;9.32;;;2.85;;
21697;SDS011;11010;49.548;11.926;2023-07-16T01:12:00;7.93;;;2.80;;
21697;SDS011;11010;49.548;11.926;2023-07-16T01:14:27;8.10;;;2.50;;
21697;SDS011;11010;49.548;11.926;2023-07-16T01:16:55;10.60;;;3.10;;
21697;SDS011;11010;49.548;11.926;2023-07-16T01:19:25;8.73;;;2.83;;
21697;SDS011;11010;49.548;11.926;2023-07-16T01:30:21;8.38;;;2.90;;
21697;SDS011;11010;49.548;11.926;2023-07-16T01:32:50;8.13;;;2.80;;
21697;SDS011;11010;49.548;11.926;2023-07-16T01:35:17;9.55;;;2.92;;
21697;SDS011;11010;49.548;11.926;2023-07-16T01:37:45;7.32;;;2.95;;
21697;SDS011;11010;49.548;11.926;2023-07-16T01:40:12;8.75;;;2.92;;
21697;SDS011;11010;49.548;11.926;2023-07-16T01:42:40;8.65;;;2.90;;
21697;SDS011;11010;49.548;11.926;2023-07-16T01:45:09;8.88;;;3.00;;
21697;SDS011;11010;49.548;11.926;2023-07-16T01:47:39;9.00;;;3.00;;
21697;SDS011;11010;49.548;11.926;2023-07-16T01:50:22;8.32;;;2.63;;
21697;SDS011;11010;49.548;11.926;2023-07-16T01:52:49;9.68;;;3.10;;
21697;SDS011;11010;49.548;11.926;2023-07-16T01:55:17;8.48;;;3.03;;
21697;SDS011;11010;49.548;11.926;2023-07-16T01:57:44;9.55;;;2.88;;
21697;SDS011;11010;49.548;11.926;2023-07-16T02:00:11;8.40;;;2.83;;
21697;SDS011;11010;49.548;11.926;2023-07-16T02:02:44;7.45;;;2.47;;
21697;SDS011;11010;49.548;11.926;2023-07-16T02:05:14;7.90;;;2.70;;
21697;SDS011;11010;49.548;11.926;2023-07-16T02:07:41;9.43;;;2.85;;
21697;SDS011;11010;49.548;11.926;2023-07-16T02:10:08;8.80;;;3.20;;
21697;SDS011;11010;49.548;11.926;2023-07-16T02:12:36;8.40;;;2.88;;
21697;SDS011;11010;49.548;11.926;2023-07-16T02:15:03;8.60;;;2.80;;
21697;SDS011;11010;49.548;11.926;2023-07-16T02:17:35;7.85;;;2.63;;
21697;SDS011;11010;49.548;11.926;2023-07-16T02:20:02;7.47;;;2.65;;
21697;SDS011;11010;49.548;11.926;2023-07-16T02:22:33;6.97;;;2.30;;
21697;SDS011;11010;49.548;11.926;2023-07-16T02:25:02;7.47;;;2.45;;
21697;SDS011;11010;49.548;11.926;2023-07-16T02:27:29;6.40;;;2.17;;
21697;SDS011;11010;49.548;11.926;2023-07-16T02:29:57;7.25;;;2.38;;
21697;SDS011;11010;49.548;11.926;2023-07-16T02:32:24;7.35;;;2.22;;
21697;SDS011;11010;49.548;11.926;2023-07-16T02:34:52;7.25;;;2.53;;
21697;SDS011;11010;49.548;11.926;2023-07-16T02:37:19;7.22;;;2.30;;
21697;SDS011;11010;49.548;11.926;2023-07-16T02:39:46;8.27;;;2.30;;
21697;SDS011;11010;49.548;11.926;2023-07-16T02:42:14;6.50;;;2.10;;
21697;SDS011;11010;49.548;11.926;2023-07-16T02:44:43;8.70;;;2.38;;
21697;SDS011;11010;49.548;11.926;2023-07-16T02:47:11;8.10;;;2.10;;
21697;SDS011;11010;49.548;11.926;2023-07-16T02:49:39;6.82;;;2.10;;
21697;SDS011;11010;49.548;11.926;2023-07-16T02:52:06;8.02;;;2.45;;
21697;SDS011;11010;49.548;11.926;2023-07-16T02:54:37;8.93;;;2.28;;
21697;SDS011;11010;49.548;11.926;2023-07-16T02:57:05;7.50;;;2.50;;
21697;SDS011;11010;49.548;11.926;2023-07-16T02:59:32;6.95;;;2.10;;
21697;SDS011;11010;49.548;11.926;2023-07-16T03:02:00;7.88;;;2.30;;
21697;SDS011;11010;49.548;11.926;2023-07-16T03:04:27;6.90;;;2.08;;
21697;SDS011;11010;49.548;11.926;2023-07-16T03:06:54;7.25;;;2.22;;
21697;SDS011;11010;49.548;11.926;2023-07-16T03:09:22;7.35;;;2.20;;
21697;SDS011;11010;49.548;11.926;2023-07-16T03:11:49;7.00;;;2.50;;
21697;SDS011;11010;49.548;11.926;2023-07-16T03:14:17;7.07;;;2.30;;
21697;SDS011;11010;49.548;11.926;2023-07-16T03:16:44;7.90;;;2.17;;
21697;SDS011;11010;49.548;11.926;2023-07-16T03:19:12;7.65;;;2.35;;
21697;SDS011;11010;49.548;11.926;2023-07-16T03:21:39;7.32;;;2.30;;
21697;SDS011;11010;49.548;11.926;2023-07-16T03:24:06;7.70;;;2.20;;
21697;SDS011;11010;49.548;11.926;2023-07-16T03:26:34;8.00;;;2.28;;
21697;SDS011;11010;49.548;11.926;2023-07-16T03:29:02;7.65;;;2.20;;
21697;SDS011;11010;49.548;11.926;2023-07-16T03:31:30;9.10;;;2.40;;
21697;SDS011;11010;49.548;11.926;2023-07-16T03:33:57;7.10;;;2.15;;
21697;SDS011;11010;49.548;11.926;2023-07-16T03:36:28;6.70;;;2.15;;
21697;SDS011;11010;49.548;11.926;2023-07-16T03:38:56;7.00;;;2.15;;
21697;SDS011;11010;49.548;11.926;2023-07-16T03:41:23;8.38;;;2.25;;
21697;SDS011;11010;49.548;11.926;2023-07-16T03:43:51;6.97;;;2.40;;
21697;SDS011;11010;49.548;11.926;2023-07-16T03:46:20;6.82;;;2.10;;
21697;SDS011;11010;49.548;11.926;2023-07-16T03:48:47;7.13;;;2.17;;
21697;SDS011;11010;49.548;11.926;2023-07-16T03:51:15;7.13;;;2.28;;
21697;SDS011;11010;49.548;11.926;2023-07-16T03:53:43;7.25;;;2.10;;
21697;SDS011;11010;49.548;11.926;2023-07-16T03:56:11;8.00;;;2.22;;
21697;SDS011;11010;49.548;11.926;2023-07-16T03:58:38;6.90;;;2.25;;
21697;SDS011;11010;49.548;11.926;2023-07-16T04:01:05;7.15;;;2.20;;
21697;SDS011;11010;49.548;11.926;2023-07-16T04:03:32;6.70;;;2.30;;
21697;SDS011;11010;49.548;11.926;2023-07-16T04:06:08;7.68;;;2.00;;
21697;SDS011;11010;49.548;11.926;2023-07-16T04:08:36;7.53;;;2.38;;
21697;SDS011;11010;49.548;11.926;2023-07-16T04:11:06;6.78;;;2.13;;
21697;SDS011;11010;49.548;11.926;2023-07-16T04:13:33;8.57;;;2.28;;
21697;SDS011;11010;49.548;11.926;2023-07-16T04:16:00;8.23;;;2.30;;
21697;SDS011;11010;49.548;11.926;2023-07-16T04:18:27;7.30;;;2.10;;
21697;SDS011;11010;49.548;11.926;2023-07-16T04:20:55;7.68;;;2.13;;
21697;SDS011;11010;49.548;11.926;2023-07-16T04:23:22;7.05;;;2.30;;
21697;SDS011;11010;49.548;11.926;2023-07-16T04:25:52;7.00;;;2.05;;
21697;SDS011;11010;49.548;11.926;2023-07-16T04:28:20;6.55;;;2.03;;
21697;SDS011;11010;49.548;11.926;2023-07-16T04:30:48;7.90;;;2.10;;
21697;SDS011;11010;49.548;11.926;2023-07-16T04:33:15;6.43;;;1.92;;
21697;SDS011;11010;49.548;11.926;2023-07-16T04:35:42;6.72;;;2.22;;
21697;SDS011;11010;49.548;11.926;2023-07-16T04:38:09;7.03;;;1.98;;
21697;SDS011;11010;49.548;11.926;2023-07-16T04:40:36;5.80;;;1.70;;
21697;SDS011;11010;49.548;11.926;2023-07-16T04:43:03;6.40;;;1.75;;
21697;SDS011;11010;49.548;11.926;2023-07-16T04:45:31;6.22;;;1.70;;
21697;SDS011;11010;49.548;11.926;2023-07-16T04:47:58;5.78;;;1.60;;
21697;SDS011;11010;49.548;11.926;2023-07-16T04:50:25;6.15;;;1.85;;
21697;SDS011;11010;49.548;11.926;2023-07-16T04:52:53;6.85;;;1.95;;
21697;SDS011;11010;49.548;11.926;2023-07-16T04:55:20;6.00;;;1.63;;
21697;SDS011;11010;49.548;11.926;2023-07-16T04:57:47;6.38;;;1.70;;
21697;SDS011;11010;49.548;11.926;2023-07-16T05:00:14;6.20;;;1.67;;
21697;SDS011;11010;49.548;11.926;2023-07-16T05:02:41;5.95;;;1.50;;
21697;SDS011;11010;49.548;11.926;2023-07-16T05:05:08;5.15;;;1.50;;
21697;SDS011;11010;49.548;11.926;2023-07-16T05:07:36;6.82;;;1.40;;
21697;SDS011;11010;49.548;11.926;2023-07-16T05:10:03;4.53;;;1.30;;
21697;SDS011;11010;49.548;11.926;2023-07-16T05:12:30;6.72;;;1.60;;
21697;SDS011;11010;49.548;11.926;2023-07-16T05:14:58;4.75;;;1.48;;
21697;SDS011;11010;49.548;11.926;2023-07-16T05:17:25;6.85;;;1.40;;
21697;SDS011;11010;49.548;11.926;2023-07-16T05:19:52;5.60;;;1.50;;
21697;SDS011;11010;49.548;11.926;2023-07-16T05:22:19;5.22;;;1.40;;
21697;SDS011;11010;49.548;11.926;2023-07-16T05:24:46;6.25;;;1.70;;
21697;SDS011;11010;49.548;11.926;2023-07-16T05:27:13;7.63;;;1.40;;
21697;SDS011;11010;49.548;11.926;2023-07-16T05:29:41;5.85;;;1.33;;
21697;SDS011;11010;49.548;11.926;2023-07-16T05:32:08;5.72;;;1.30;;
21697;SDS011;11010;49.548;11.926;2023-07-16T05:34:35;4.50;;;1.30;;
21697;SDS011;11010;49.548;11.926;2023-07-16T05:37:03;5.18;;;1.27;;
21697;SDS011;11010;49.548;11.926;2023-07-16T05:39:30;5.18;;;1.38;;
21697;SDS011;11010;49.548;11.926;2023-07-16T05:41:57;5.30;;;1.30;;
21697;SDS011;11010;49.548;11.926;2023-07-16T05:44:24;5.35;;;1.40;;
21697;SDS011;11010;49.548;11.926;2023-07-16T05:46:51;4.82;;;1.38;;
21697;SDS011;11010;49.548;11.926;2023-07-16T05:49:18;5.55;;;1.40;;
21697;SDS011;11010;49.548;11.926;2023-07-16T05:51:46;4.22;;;1.20;;
21697;SDS011;11010;49.548;11.926;2023-07-16T05:54:13;5.18;;;1.30;;
21697;SDS011;11010;49.548;11.926;2023-07-16T05:56:41;6.55;;;1.40;;
21697;SDS011;11010;49.548;11.926;2023-07-16T05:59:08;6.25;;;1.48;;
21697;SDS011;11010;49.548;11.926;2023-07-16T06:01:35;5.18;;;1.40;;
21697;SDS011;11010;49.548;11.926;2023-07-16T06:04:03;5.88;;;1.30;;
21697;SDS011;11010;49.548;11.926;2023-07-16T06:06:30;5.95;;;1.40;;
21697;SDS011;11010;49.548;11.926;2023-07-16T06:08:57;5.63;;;1.40;;
21697;SDS011;11010;49.548;11.926;2023-07-16T06:11:25;4.00;;;1.20;;
21697;SDS011;11010;49.548;11.926;2023-07-16T06:13:55;4.30;;;1.20;;
21697;SDS011;11010;49.548;11.926;2023-07-16T06:16:22;5.18;;;1.33;;
21697;SDS011;11010;49.548;11.926;2023-07-16T06:18:49;6.55;;;1.40;;
21697;SDS011;11010;49.548;11.926;2023-07-16T06:21:16;5.55;;;1.45;;
21697;SDS011;11010;49.548;11.926;2023-07-16T06:23:44;7.00;;;1.60;;
21697;SDS011;11010;49.548;11.926;2023-07-16T06:26:11;6.20;;;1.55;;
21697;SDS011;11010;49.548;11.926;2023-07-16T06:28:38;5.10;;;1.38;;
21697;SDS011;11010;49.548;11.926;2023-07-16T06:31:06;4.95;;;1.25;;
21697;SDS011;11010;49.548;11.926;2023-07-16T06:33:33;6.43;;;1.60;;
21697;SDS011;11010;49.548;11.926;2023-07-16T06:36:00;6.30;;;1.40;;
21697;SDS011;11010;49.548;11.926;2023-07-16T06:38:27;5.75;;;1.40;;
21697;SDS011;11010;49.548;11.926;2023-07-16T06:40:56;6.35;;;1.20;;
21697;SDS011;11010;49.548;11.926;2023-07-16T06:43:23;6.35;;;1.38;;
21697;SDS011;11010;49.548;11.926;2023-07-16T06:45:50;5.40;;;1.30;;
21697;SDS011;11010;49.548;11.926;2023-07-16T06:48:18;6.15;;;1.25;;
21697;SDS011;11010;49.548;11.926;2023-07-16T06:50:45;5.13;;;1.35;;
21697;SDS011;11010;49.548;11.926;2023-07-16T06:53:13;7.28;;;1.50;;
21697;SDS011;11010;49.548;11.926;2023-07-16T06:55:40;6.55;;;1.67;;
21697;SDS011;11010;49.548;11.926;2023-07-16T06:58:11;6.20;;;1.50;;
21697;SDS011;11010;49.548;11.926;2023-07-16T07:00:40;6.82;;;1.50;;
21697;SDS011;11010;49.548;11.926;2023-07-16T07:03:07;5.60;;;1.48;;
21697;SDS011;11010;49.548;11.926;2023-07-16T07:05:35;6.90;;;1.52;;
21697;SDS011;11010;49.548;11.926;2023-07-16T07:08:03;4.70;;;1.40;;
21697;SDS011;11010;49.548;11.926;2023-07-16T07:10:30;6.10;;;1.55;;
21697;SDS011;11010;49.548;11.926;2023-07-16T07:12:59;6.55;;;1.58;;
21697;SDS011;11010;49.548;11.926;2023-07-16T07:15:26;6.82;;;1.38;;
21697;SDS011;11010;49.548;11.926;2023-07-16T07:17:53;7.82;;;1.52;;
21697;SDS011;11010;49.548;11.926;2023-07-16T07:20:20;8.00;;;1.75;;
21697;SDS011;11010;49.548;11.926;2023-07-16T07:22:47;6.85;;;1.70;;
21697;SDS011;11010;49.548;11.926;2023-07-16T07:25:15;7.80;;;1.60;;
21697;SDS011;11010;49.548;11.926;2023-07-16T07:27:42;5.97;;;1.30;;
21697;SDS011;11010;49.548;11.926;2023-07-16T07:30:09;6.57;;;1.60;;
21697;SDS011;11010;49.548;11.926;2023-07-16T07:32:37;7.03;;;1.45;;
21697;SDS011;11010;49.548;11.926;2023-07-16T07:35:05;6.05;;;1.65;;
21697;SDS011;11010;49.548;11.926;2023-07-16T07:37:32;7.75;;;1.92;;
21697;SDS011;11010;49.548;11.926;2023-07-16T07:40:00;8.45;;;1.90;;
21697;SDS011;11010;49.548;11.926;2023-07-16T07:42:27;8.20;;;1.60;;
21697;SDS011;11010;49.548;11.926;2023-07-16T07:44:56;8.40;;;1.70;;
21697;SDS011;11010;49.548;11.926;2023-07-16T07:47:23;7.10;;;1.50;;
21697;SDS011;11010;49.548;11.926;2023-07-16T07:49:52;5.35;;;1.30;;
21697;SDS011;11010;49.548;11.926;2023-07-16T07:52:19;6.72;;;1.50;;
21697;SDS011;11010;49.548;11.926;2023-07-16T07:54:46;5.53;;;1.40;;
21697;SDS011;11010;49.548;11.926;2023-07-16T07:57:13;6.63;;;1.70;;
21697;SDS011;11010;49.548;11.926;2023-07-16T07:59:44;8.20;;;1.50;;
21697;SDS011;11010;49.548;11.926;2023-07-16T08:02:11;7.85;;;1.65;;
21697;SDS011;11010;49.548;11.926;2023-07-16T08:04:38;7.35;;;1.63;;
21697;SDS011;11010;49.548;11.926;2023-07-16T08:07:05;8.13;;;1.67;;
21697;SDS011;11010;49.548;11.926;2023-07-16T08:09:33;5.88;;;1.30;;
21697;SDS011;11010;49.548;11.926;2023-07-16T08:12:00;9.23;;;1.90;;
21697;SDS011;11010;49.548;11.926;2023-07-16T08:14:27;7.20;;;1.80;;
21697;SDS011;11010;49.548;11.926;2023-07-16T08:16:55;7.65;;;1.50;;
21697;SDS011;11010;49.548;11.926;2023-07-16T08:19:22;7.38;;;1.75;;
21697;SDS011;11010;49.548;11.926;2023-07-16T08:21:49;6.28;;;1.70;;
21697;SDS011;11010;49.548;11.926;2023-07-16T08:24:17;7.03;;;1.58;;
21697;SDS011;11010;49.548;11.926;2023-07-16T08:26:44;6.05;;;1.52;;
21697;SDS011;11010;49.548;11.926;2023-07-16T08:29:11;8.05;;;1.75;;
21697;SDS011;11010;49.548;11.926;2023-07-16T08:31:38;6.80;;;1.50;;
21697;SDS011;11010;49.548;11.926;2023-07-16T08:34:06;6.22;;;1.50;;
21697;SDS011;11010;49.548;11.926;2023-07-16T08:36:34;6.03;;;1.48;;
21697;SDS011;11010;49.548;11.926;2023-07-16T08:39:04;6.85;;;1.40;;
21697;SDS011;11010;49.548;11.926;2023-07-16T08:41:32;7.53;;;1.60;;
21697;SDS011;11010;49.548;11.926;2023-07-16T08:43:59;6.60;;;1.60;;
21697;SDS011;11010;49.548;11.926;2023-07-16T08:46:26;7.68;;;1.67;;
21697;SDS011;11010;49.548;11.926;2023-07-16T08:48:54;6.63;;;1.40;;
21697;SDS011;11010;49.548;11.926;2023-07-16T08:51:23;7.40;;;1.80;;
21697;SDS011;11010;49.548;11.926;2023-07-16T08:53:52;7.53;;;1.73;;
21697;SDS011;11010;49.548;11.926;2023-07-16T08:56:19;6.70;;;1.50;;
21697;SDS011;11010;49.548;11.926;2023-07-16T08:58:47;7.90;;;1.70;;
21697;SDS011;11010;49.548;11.926;2023-07-16T09:01:15;6.82;;;1.67;;
21697;SDS011;11010;49.548;11.926;2023-07-16T09:03:49;7.40;;;1.70;;
21697;SDS011;11010;49.548;11.926;2023-07-16T09:06:16;7.40;;;1.45;;
21697;SDS011;11010;49.548;11.926;2023-07-16T09:08:44;6.38;;;1.38;;
21697;SDS011;11010;49.548;11.926;2023-07-16T09:11:12;10.98;;;1.90;;
21697;SDS011;11010;49.548;11.926;2023-07-16T09:13:48;7.68;;;1.63;;
21697;SDS011;11010;49.548;11.926;2023-07-16T09:16:19;6.57;;;1.60;;
21697;SDS011;11010;49.548;11.926;2023-07-16T09:18:47;7.20;;;1.48;;
21697;SDS011;11010;49.548;11.926;2023-07-16T09:21:14;6.55;;;1.60;;
21697;SDS011;11010;49.548;11.926;2023-07-16T09:23:42;9.23;;;1.60;;
21697;SDS011;11010;49.548;11.926;2023-07-16T09:26:09;5.95;;;1.65;;
21697;SDS011;11010;49.548;11.926;2023-07-16T09:28:36;8.30;;;1.73;;
21697;SDS011;11010;49.548;11.926;2023-07-16T09:31:07;7.55;;;1.55;;
21697;SDS011;11010;49.548;11.926;2023-07-16T09:33:34;7.70;;;1.83;;
21697;SDS011;11010;49.548;11.926;2023-07-16T09:36:02;6.78;;;1.60;;
21697;SDS011;11010;49.548;11.926;2023-07-16T09:38:31;7.20;;;1.60;;
21697;SDS011;11010;49.548;11.926;2023-07-16T09:40:59;9.80;;;2.08;;
21697;SDS011;11010;49.548;11.926;2023-07-16T09:43:29;8.63;;;1.90;;
21697;SDS011;11010;49.548;11.926;2023-07-16T09:45:56;6.07;;;1.45;;
21697;SDS011;11010;49.548;11.926;2023-07-16T09:48:24;8.88;;;1.75;;
21697;SDS011;11010;49.548;11.926;2023-07-16T09:50:52;7.97;;;1.73;;
21697;SDS011;11010;49.548;11.926;2023-07-16T09:53:21;7.13;;;1.60;;
21697;SDS011;11010;49.548;11.926;2023-07-16T09:55:50;8.02;;;1.67;;
21697;SDS011;11010;49.548;11.926;2023-07-16T09:58:20;7.93;;;1.70;;
21697;SDS011;11010;49.548;11.926;2023-07-16T10:00:49;7.15;;;1.70;;
21697;SDS011;11010;49.548;11.926;2023-07-16T10:03:17;7.63;;;1.70;;
21697;SDS011;11010;49.548;11.926;2023-07-16T10:05:44;7.95;;;1.67;;
21697;SDS011;11010;49.548;11.926;2023-07-16T10:08:16;7.85;;;1.58;;
21697;SDS011;11010;49.548;11.926;2023-07-16T10:10:46;8.50;;;1.90;;
21697;SDS011;11010;49.548;11.926;2023-07-16T10:13:24;7.60;;;1.75;;
21697;SDS011;11010;49.548;11.926;2023-07-16T10:15:57;7.95;;;1.90;;
21697;SDS011;11010;49.548;11.926;2023-07-16T10:18:29;6.13;;;1.60;;
21697;SDS011;11010;49.548;11.926;2023-07-16T10:20:59;6.57;;;1.58;;
21697;SDS011;11010;49.548;11.926;2023-07-16T10:23:36;7.32;;;1.58;;
21697;SDS011;11010;49.548;11.926;2023-07-16T10:26:08;8.98;;;1.88;;
21697;SDS011;11010;49.548;11.926;2023-07-16T10:28:44;7.82;;;1.55;;
21697;SDS011;11010;49.548;11.926;2023-07-16T10:31:24;7.90;;;1.70;;
21697;SDS011;11010;49.548;11.926;2023-07-16T10:34:10;6.65;;;1.58;;
21697;SDS011;11010;49.548;11.926;2023-07-16T10:36:38;6.65;;;1.70;;
21697;SDS011;11010;49.548;11.926;2023-07-16T10:39:06;7.40;;;1.73;;
21697;SDS011;11010;49.548;11.926;2023-07-16T10:41:33;7.53;;;1.70;;
21697;SDS011;11010;49.548;11.926;2023-07-16T10:44:01;9.30;;;1.75;;
21697;SDS011;11010;49.548;11.926;2023-07-16T10:46:28;6.97;;;1.63;;
21697;SDS011;11010;49.548;11.926;2023-07-16T10:49:00;7.25;;;1.80;;
21697;SDS011;11010;49.548;11.926;2023-07-16T10:51:28;10.30;;;1.73;;
21697;SDS011;11010;49.548;11.926;2023-07-16T10:53:56;7.65;;;1.88;;
21697;SDS011;11010;49.548;11.926;2023-07-16T10:56:24;9.18;;;1.73;;
21697;SDS011;11010;49.548;11.926;2023-07-16T10:58:51;7.18;;;1.75;;
21697;SDS011;11010;49.548;11.926;2023-07-16T11:01:20;7.15;;;1.63;;
21697;SDS011;11010;49.548;11.926;2023-07-16T11:03:47;8.57;;;2.10;;
21697;SDS011;11010;49.548;11.926;2023-07-16T11:06:15;6.85;;;1.77;;
21697;SDS011;11010;49.548;11.926;2023-07-16T11:08:45;7.47;;;1.90;;
21697;SDS011;11010;49.548;11.926;2023-07-16T11:11:12;8.70;;;1.98;;
21697;SDS011;11010;49.548;11.926;2023-07-16T11:13:40;6.35;;;1.58;;
21697;SDS011;11010;49.548;11.926;2023-07-16T11:16:09;8.60;;;1.80;;
21697;SDS011;11010;49.548;11.926;2023-07-16T11:18:37;7.07;;;1.85;;
21697;SDS011;11010;49.548;11.926;2023-07-16T11:21:05;7.90;;;2.00;;
21697;SDS011;11010;49.548;11.926;2023-07-16T11:23:35;10.10;;;1.88;;
21697;SDS011;11010;49.548;11.926;2023-07-16T11:26:03;7.20;;;1.73;;
21697;SDS011;11010;49.548;11.926;2023-07-16T11:28:40;7.47;;;1.77;;
21697;SDS011;11010;49.548;11.926;2023-07-16T11:31:15;7.07;;;1.90;;
21697;SDS011;11010;49.548;11.926;2023-07-16T11:33:43;7.25;;;1.88;;
21697;SDS011;11010;49.548;11.926;2023-07-16T11:36:11;9.40;;;1.90;;
21697;SDS011;11010;49.548;11.926;2023-07-16T11:38:39;6.07;;;1.73;;
21697;SDS011;11010;49.548;11.926;2023-07-16T11:41:07;7.47;;;1.85;;
21697;SDS011;11010;49.548;11.926;2023-07-16T11:43:34;7.10;;;1.85;;
21697;SDS011;11010;49.548;11.926;2023-07-16T11:46:03;8.35;;;1.80;;
21697;SDS011;11010;49.548;11.926;2023-07-16T11:48:31;8.10;;;1.92;;
21697;SDS011;11010;49.548;11.926;2023-07-16T11:50:58;8.93;;;2.08;;
21697;SDS011;11010;49.548;11.926;2023-07-16T11:53:26;7.68;;;2.25;;
21697;SDS011;11010;49.548;11.926;2023-07-16T11:55:53;7.22;;;1.98;;
21697;SDS011;11010;49.548;11.926;2023-07-16T11:58:21;7.20;;;1.73;;
21697;SDS011;11010;49.548;11.926;2023-07-16T12:00:49;6.30;;;1.60;;
21697;SDS011;11010;49.548;11.926;2023-07-16T12:03:18;7.45;;;1.83;;
21697;SDS011;11010;49.548;11.926;2023-07-16T12:05:45;7.80;;;1.92;;
21697;SDS011;11010;49.548;11.926;2023-07-16T12:08:19;6.25;;;1.60;;
21697;SDS011;11010;49.548;11.926;2023-07-16T12:10:46;7.30;;;1.67;;
21697;SDS011;11010;49.548;11.926;2023-07-16T12:13:14;6.05;;;1.60;;
21697;SDS011;11010;49.548;11.926;2023-07-16T12:15:41;6.95;;;1.70;;
21697;SDS011;11010;49.548;11.926;2023-07-16T12:18:09;6.72;;;1.83;;
21697;SDS011;11010;49.548;11.926;2023-07-16T12:20:36;6.95;;;1.70;;
21697;SDS011;11010;49.548;11.926;2023-07-16T12:23:04;7.57;;;1.75;;
21697;SDS011;11010;49.548;11.926;2023-07-16T12:25:32;5.88;;;1.60;;
21697;SDS011;11010;49.548;11.926;2023-07-16T12:28:00;7.18;;;1.67;;
21697;SDS011;11010;49.548;11.926;2023-07-16T12:30:28;6.45;;;1.88;;
21697;SDS011;11010;49.548;11.926;2023-07-16T12:32:56;7.50;;;1.92;;
21697;SDS011;11010;49.548;11.926;2023-07-16T12:35:24;8.35;;;1.70;;
21697;SDS011;11010;49.548;11.926;2023-07-16T12:37:51;7.25;;;2.10;;
21697;SDS011;11010;49.548;11.926;2023-07-16T12:40:18;8.38;;;1.70;;
21697;SDS011;11010;49.548;11.926;2023-07-16T12:42:45;6.78;;;1.65;;
21697;SDS011;11010;49.548;11.926;2023-07-16T12:45:13;6.55;;;1.75;;
21697;SDS011;11010;49.548;11.926;2023-07-16T12:47:40;6.35;;;1.60;;
21697;SDS011;11010;49.548;11.926;2023-07-16T12:50:08;9.00;;;2.20;;
21697;SDS011;11010;49.548;11.926;2023-07-16T12:52:36;5.55;;;1.60;;
21697;SDS011;11010;49.548;11.926;2023-07-16T12:55:03;8.38;;;1.70;;
21697;SDS011;11010;49.548;11.926;2023-07-16T12:57:31;7.60;;;1.70;;
21697;SDS011;11010;49.548;11.926;2023-07-16T12:59:58;7.20;;;1.83;;
21697;SDS011;11010;49.548;11.926;2023-07-16T13:02:26;6.93;;;1.90;;
21697;SDS011;11010;49.548;11.926;2023-07-16T13:04:54;6.18;;;1.80;;
21697;SDS011;11010;49.548;11.926;2023-07-16T13:07:24;8.45;;;1.98;;
21697;SDS011;11010;49.548;11.926;2023-07-16T13:09:51;6.30;;;1.60;;
21697;SDS011;11010;49.548;11.926;2023-07-16T13:12:38;7.50;;;1.98;;
21697;SDS011;11010;49.548;11.926;2023-07-16T13:15:05;7.22;;;1.80;;
21697;SDS011;11010;49.548;11.926;2023-07-16T13:17:33;7.90;;;2.00;;
21697;SDS011;11010;49.548;11.926;2023-07-16T13:20:00;7.15;;;1.80;;
21697;SDS011;11010;49.548;11.926;2023-07-16T13:22:28;7.30;;;1.63;;
21697;SDS011;11010;49.548;11.926;2023-07-16T13:24:55;8.07;;;2.08;;
21697;SDS011;11010;49.548;11.926;2023-07-16T13:27:23;8.07;;;1.90;;
21697;SDS011;11010;49.548;11.926;2023-07-16T13:29:50;7.72;;;1.83;;
21697;SDS011;11010;49.548;11.926;2023-07-16T13:32:18;8.15;;;1.83;;
21697;SDS011;11010;49.548;11.926;2023-07-16T13:34:45;7.88;;;2.00;;
21697;SDS011;11010;49.548;11.926;2023-07-16T13:37:13;6.93;;;1.88;;
21697;SDS011;11010;49.548;11.926;2023-07-16T13:39:41;7.72;;;1.90;;
21697;SDS011;11010;49.548;11.926;2023-07-16T13:42:08;7.05;;;1.95;;
21697;SDS011;11010;49.548;11.926;2023-07-16T13:44:49;6.70;;;1.70;;
21697;SDS011;11010;49.548;11.926;2023-07-16T13:47:16;7.30;;;1.90;;
21697;SDS011;11010;49.548;11.926;2023-07-16T13:49:44;6.97;;;1.80;;
21697;SDS011;11010;49.548;11.926;2023-07-16T13:52:11;6.43;;;1.70;;
21697;SDS011;11010;49.548;11.926;2023-07-16T13:54:38;8.10;;;2.05;;
21697;SDS011;11010;49.548;11.926;2023-07-16T13:57:08;6.75;;;1.80;;
21697;SDS011;11010;49.548;11.926;2023-07-16T13:59:35;7.60;;;1.70;;
21697;SDS011;11010;49.548;11.926;2023-07-16T14:02:04;6.80;;;2.00;;
21697;SDS011;11010;49.548;11.926;2023-07-16T14:04:32;6.68;;;1.80;;
21697;SDS011;11010;49.548;11.926;2023-07-16T14:07:01;7.65;;;1.90;;
21697;SDS011;11010;49.548;11.926;2023-07-16T14:09:28;8.57;;;2.30;;
21697;SDS011;11010;49.548;11.926;2023-07-16T14:11:56;8.13;;;2.03;;
21697;SDS011;11010;49.548;11.926;2023-07-16T14:14:23;6.15;;;1.67;;
21697;SDS011;11010;49.548;11.926;2023-07-16T14:16:50;7.05;;;1.95;;
21697;SDS011;11010;49.548;11.926;2023-07-16T14:19:17;6.07;;;1.60;;
21697;SDS011;11010;49.548;11.926;2023-07-16T14:21:45;6.57;;;1.88;;
21697;SDS011;11010;49.548;11.926;2023-07-16T14:24:12;6.47;;;1.80;;
21697;SDS011;11010;49.548;11.926;2023-07-16T14:26:39;8.65;;;1.98;;
21697;SDS011;11010;49.548;11.926;2023-07-16T14:29:07;8.52;;;1.70;;
21697;SDS011;11010;49.548;11.926;2023-07-16T14:31:34;6.55;;;1.70;;
21697;SDS011;11010;49.548;11.926;2023-07-16T14:34:02;8.73;;;2.13;;
21697;SDS011;11010;49.548;11.926;2023-07-16T14:36:29;7.30;;;1.88;;
21697;SDS011;11010;49.548;11.926;2023-07-16T14:38:56;7.18;;;1.88;;
21697;SDS011;11010;49.548;11.926;2023-07-16T14:41:24;8.35;;;1.83;;
21697;SDS011;11010;49.548;11.926;2023-07-16T14:43:51;6.13;;;1.75;;
21697;SDS011;11010;49.548;11.926;2023-07-16T14:46:23;6.55;;;1.80;;